Bangor, Michigan
Current Conditions -  °F | °C
As of 12:15 AM on Sunday 26 Oct 2014 (Local Time) from KLWA Reporting Station
Clear Clear  
Wind Chill: 58°   Ceiling: Unl
Heat Index: 58°   Visibility: 10mi
Dew Point: 38°   Wind: 10mph
Humidity: 48%   Direction: 310°NW
Pressure: 29.92"   Gusts: 21mph
Location:  42.31°N, 86.11°W
Report Text: KLWA 260415Z AUTO 31009G18KT 10SM CLR 14/04 A2992 RMK AO2 T01440035
Loading
Personal Weather Stations






























Interactive Weather Map
Tropical Storm Tracking
New forecast layout! Learn more

10-Day Weather Forecast

Advertisements
Track Severe Weather on mobile